Time;durP1;ratioP1;P1;durP2;ratioP2;P2;SDS_P1;SDS_P2;PMS_P1;PMS_P2;Temp;Humidity;BMP_temperature;BMP_pressure;BME280_temperature;BME280_humidity;BME280_pressure;Samples;Min_cycle;Max_cycle;Signal;HPM_P1;HPM_P2
2021/07/12 00:00:28;;;;;;;11.50;10.30;;;21.60;99.90;;;;;;2107144;28;20024;-68
2021/07/12 00:01:29;;;;;;;10.75;9.68;;;21.50;99.90;;;;;;2106612;28;20040;-69
2021/07/12 00:02:29;;;;;;;12.85;11.70;;;21.50;99.90;;;;;;2107110;28;20026;-69
2021/07/12 00:03:30;;;;;;;9.98;8.93;;;21.50;99.90;;;;;;2107064;28;20047;-68
2021/07/12 00:04:30;;;;;;;10.77;9.60;;;21.60;99.90;;;;;;2107012;28;20425;-69
2021/07/12 00:05:31;;;;;;;11.68;10.48;;;21.50;99.90;;;;;;2106929;28;20141;-69
2021/07/12 00:06:32;;;;;;;12.00;10.85;;;21.50;99.90;;;;;;2106785;28;20051;-69
2021/07/12 00:07:32;;;;;;;10.55;8.70;;;21.50;99.90;;;;;;2107121;28;20028;-69
2021/07/12 00:08:33;;;;;;;12.10;10.73;;;21.50;99.90;;;;;;2106870;28;20432;-69
2021/07/12 00:09:34;;;;;;;12.35;11.20;;;21.50;99.90;;;;;;2107360;28;20045;-69
2021/07/12 00:10:35;;;;;;;11.65;10.50;;;21.50;99.90;;;;;;2106984;28;20040;-69
2021/07/12 00:11:36;;;;;;;11.90;8.30;;;21.50;99.90;;;;;;2106568;28;20024;-69
2021/07/12 00:12:37;;;;;;;11.13;10.02;;;21.50;99.90;;;;;;2106836;28;20032;-69
2021/07/12 00:13:38;;;;;;;12.70;11.48;;;21.50;99.90;;;;;;2107032;28;20028;-69
2021/07/12 00:14:38;;;;;;;13.02;11.85;;;21.50;99.90;;;;;;2106426;28;20025;-69
2021/07/12 00:15:39;;;;;;;9.52;8.70;;;21.50;99.90;;;;;;2107007;28;20077;-69
2021/07/12 00:16:40;;;;;;;11.02;10.00;;;21.50;99.90;;;;;;2106702;28;20024;-69
2021/07/12 00:17:40;;;;;;;13.20;12.00;;;21.50;99.90;;;;;;2107069;28;20028;-68
2021/07/12 00:18:41;;;;;;;12.27;11.07;;;21.50;99.90;;;;;;2106788;28;20107;-69
2021/07/12 00:19:42;;;;;;;11.25;10.25;;;21.50;99.90;;;;;;2106948;28;20074;-68
2021/07/12 00:20:42;;;;;;;12.32;11.15;;;21.50;99.90;;;;;;2106862;28;20081;-68
2021/07/12 00:21:43;;;;;;;13.35;11.77;;;21.50;99.90;;;;;;2106338;28;20379;-68
2021/07/12 00:22:45;;;;;;;13.07;11.77;;;21.50;99.90;;;;;;2106793;28;20031;-69
2021/07/12 00:23:46;;;;;;;11.18;10.18;;;21.50;99.90;;;;;;2106282;28;20095;-69
2021/07/12 00:24:46;;;;;;;12.48;10.77;;;21.50;99.90;;;;;;2106656;28;20058;-69
2021/07/12 00:25:47;;;;;;;11.95;9.27;;;21.50;99.90;;;;;;2106997;28;20028;-68
2021/07/12 00:26:48;;;;;;;10.90;9.80;;;21.50;99.90;;;;;;2106658;28;20481;-68
2021/07/12 00:27:49;;;;;;;12.40;11.10;;;21.50;99.90;;;;;;2107044;28;20028;-68
2021/07/12 00:28:50;;;;;;;12.43;11.05;;;21.50;99.90;;;;;;2106624;28;20036;-69
2021/07/12 00:29:51;;;;;;;12.10;11.00;;;21.50;99.90;;;;;;2106935;28;20517;-69
2021/07/12 00:30:52;;;;;;;12.57;11.48;;;21.50;99.90;;;;;;2106975;28;20081;-68
2021/07/12 00:31:52;;;;;;;10.13;9.07;;;21.50;99.90;;;;;;2106389;28;20065;-68
2021/07/12 00:32:55;;;;;;;11.35;10.40;;;21.50;99.90;;;;;;2106574;28;20475;-69
2021/07/12 00:33:56;;;;;;;13.13;11.88;;;21.50;99.90;;;;;;2107013;28;20382;-69
2021/07/12 00:34:56;;;;;;;10.13;9.32;;;21.50;99.90;;;;;;2106792;28;20047;-69
2021/07/12 00:35:57;;;;;;;11.07;9.38;;;21.40;99.90;;;;;;2106756;28;20016;-69
2021/07/12 00:36:58;;;;;;;12.05;9.93;;;21.40;99.90;;;;;;2098375;28;20024;-69
2021/07/12 00:37:58;;;;;;;11.68;10.30;;;21.40;99.90;;;;;;2101824;28;20051;-69
2021/07/12 00:38:59;;;;;;;13.48;12.18;;;21.40;99.90;;;;;;2106842;28;20012;-69
2021/07/12 00:40:00;;;;;;;11.02;10.02;;;21.40;99.90;;;;;;2107025;28;20060;-69
2021/07/12 00:41:00;;;;;;;12.13;10.75;;;21.40;99.90;;;;;;2106756;28;20485;-69
2021/07/12 00:42:01;;;;;;;14.40;12.95;;;21.40;99.90;;;;;;2106181;28;20142;-69
2021/07/12 00:43:04;;;;;;;15.30;11.88;;;21.40;99.90;;;;;;2106915;28;20019;-69
2021/07/12 00:44:05;;;;;;;14.38;11.07;;;21.40;99.90;;;;;;2106740;28;20470;-69
2021/07/12 00:45:10;;;;;;;10.68;9.63;;;21.40;99.90;;;;;;2106821;28;20407;-69
2021/07/12 00:46:10;;;;;;;11.60;10.15;;;21.40;99.90;;;;;;2106552;28;20028;-69
2021/07/12 00:47:11;;;;;;;10.93;9.82;;;21.30;99.90;;;;;;2106921;28;20051;-69
2021/07/12 00:48:12;;;;;;;12.05;10.88;;;21.30;99.90;;;;;;2106731;28;20603;-69
2021/07/12 00:49:12;;;;;;;14.27;11.75;;;21.30;99.90;;;;;;2106450;28;20020;-69
2021/07/12 00:50:13;;;;;;;11.35;10.35;;;21.30;99.90;;;;;;2106516;28;20024;-69
2021/07/12 00:51:14;;;;;;;13.20;11.35;;;21.30;99.90;;;;;;2106687;28;20024;-69
2021/07/12 00:52:15;;;;;;;10.45;9.55;;;21.30;99.90;;;;;;2106050;28;20028;-69
2021/07/12 00:53:16;;;;;;;13.20;11.90;;;21.30;99.90;;;;;;2106960;28;20020;-69
2021/07/12 00:54:17;;;;;;;13.38;10.40;;;21.30;99.90;;;;;;2106416;28;20035;-69
2021/07/12 00:55:27;;;;;;;10.88;9.40;;;21.30;99.90;;;;;;2106971;28;20100;-69
2021/07/12 00:56:27;;;;;;;12.98;11.88;;;21.30;99.90;;;;;;2098474;28;20459;-69
2021/07/12 00:57:28;;;;;;;10.77;9.82;;;21.30;99.90;;;;;;2102249;28;20071;-69
2021/07/12 00:58:28;;;;;;;10.10;9.30;;;21.20;99.90;;;;;;2106619;28;20104;-69
2021/07/12 00:59:29;;;;;;;10.88;9.80;;;21.20;99.90;;;;;;2106664;28;20456;-69
2021/07/12 01:00:30;;;;;;;11.57;10.38;;;21.20;99.90;;;;;;2106562;28;20413;-69
2021/07/12 01:01:30;;;;;;;11.02;10.02;;;21.20;99.90;;;;;;2106089;28;20020;-69
2021/07/12 01:02:31;;;;;;;10.55;9.45;;;21.20;99.90;;;;;;2106479;28;20387;-69
2021/07/12 01:03:31;;;;;;;10.70;9.57;;;21.20;99.90;;;;;;2106542;28;20024;-69
2021/07/12 01:04:33;;;;;;;11.40;10.32;;;21.20;99.90;;;;;;2106441;28;20625;-69
2021/07/12 01:05:35;;;;;;;11.32;10.32;;;21.10;99.90;;;;;;2106704;28;20150;-69
2021/07/12 01:06:35;;;;;;;10.52;9.57;;;21.10;99.90;;;;;;2106609;28;20020;-69
2021/07/12 01:07:36;;;;;;;11.77;10.32;;;21.10;99.90;;;;;;2106685;28;20020;-69
2021/07/12 01:08:36;;;;;;;10.65;9.65;;;21.10;99.90;;;;;;2106477;28;20482;-69
2021/07/12 01:09:38;;;;;;;10.30;9.30;;;21.10;99.90;;;;;;2106323;28;20016;-69
2021/07/12 01:10:41;;;;;;;10.25;9.40;;;21.10;99.90;;;;;;2106578;28;20105;-69
2021/07/12 01:11:55;;;;;;;10.77;9.88;;;21.00;99.90;;;;;;2106079;28;20092;-69
2021/07/12 01:13:37;;;;;;;9.65;8.85;;;21.00;99.90;;;;;;2106432;28;20020;-69
2021/07/12 01:15:00;;;;;;;8.52;7.72;;;21.00;99.90;;;;;;2106773;28;20028;-69
2021/07/12 01:16:09;;;;;;;9.95;9.05;;;20.90;99.90;;;;;;2105932;28;20024;-69
2021/07/12 01:17:17;;;;;;;10.73;9.40;;;20.90;99.90;;;;;;2105736;28;20030;-69
2021/07/12 01:18:55;;;;;;;9.50;8.60;;;20.90;99.90;;;;;;2106244;28;20265;-69
2021/07/12 01:20:33;;;;;;;10.13;9.10;;;20.80;99.90;;;;;;2106694;28;20023;-69
2021/07/12 01:21:58;;;;;;;8.82;8.07;;;20.80;99.90;;;;;;2105890;28;20376;-69
2021/07/12 01:23:33;;;;;;;9.80;8.88;;;20.70;99.90;;;;;;2106427;28;20051;-68
2021/07/12 01:24:54;;;;;;;10.40;9.60;;;20.70;99.90;;;;;;2106590;28;20042;-69
2021/07/12 01:25:57;;;;;;;11.07;10.07;;;20.70;99.90;;;;;;2106653;28;20065;-69
2021/07/12 01:27:09;;;;;;;9.40;8.25;;;20.60;99.90;;;;;;2105913;28;20028;-69
2021/07/12 01:28:31;;;;;;;10.23;9.30;;;20.60;99.90;;;;;;2106417;28;20024;-69
2021/07/12 01:29:56;;;;;;;9.80;8.93;;;20.60;99.90;;;;;;2106410;28;20020;-69
2021/07/12 01:31:34;;;;;;;11.05;9.85;;;20.60;99.90;;;;;;2105783;28;20360;-69
2021/07/12 01:32:55;;;;;;;10.02;8.95;;;20.50;99.90;;;;;;2106342;28;20028;-69
2021/07/12 01:34:20;;;;;;;9.82;8.82;;;20.50;99.90;;;;;;2106264;28;20024;-69
2021/07/12 01:35:54;;;;;;;9.75;8.85;;;20.50;99.90;;;;;;2105693;28;20016;-69
2021/07/12 01:37:11;;;;;;;9.52;8.73;;;20.50;99.90;;;;;;2106492;28;20008;-69
2021/07/12 01:38:50;;;;;;;10.70;9.75;;;20.40;99.90;;;;;;2106298;28;20024;-69
2021/07/12 01:40:00;;;;;;;11.55;10.40;;;20.40;99.90;;;;;;2106195;28;20035;-69
2021/07/12 01:41:17;;;;;;;10.73;9.73;;;20.40;99.90;;;;;;2106581;28;20462;-69
2021/07/12 01:43:07;;;;;;;10.45;9.55;;;20.30;99.90;;;;;;2105912;28;20020;-69
2021/07/12 01:44:32;;;;;;;11.48;10.32;;;20.30;99.90;;;;;;2101422;28;20094;-69
2021/07/12 01:45:45;;;;;;;10.50;9.50;;;20.30;99.90;;;;;;2088375;28;20028;-69
2021/07/12 01:46:51;;;;;;;10.52;9.63;;;20.20;99.90;;;;;;2106228;28;20119;-69
2021/07/12 01:48:14;;;;;;;11.40;10.13;;;20.20;99.90;;;;;;2106174;28;20031;-69
2021/07/12 01:49:48;;;;;;;10.77;9.50;;;20.20;99.90;;;;;;2106426;28;20470;-69
2021/07/12 01:50:56;;;;;;;10.77;9.88;;;20.20;99.90;;;;;;2106296;28;20028;-69
2021/07/12 01:52:13;;;;;;;9.27;8.52;;;20.20;99.90;;;;;;2105790;28;20026;-69
2021/07/12 01:53:26;;;;;;;10.65;9.65;;;20.20;99.90;;;;;;2106325;28;20352;-69
2021/07/12 01:54:29;;;;;;;12.88;10.30;;;20.20;99.90;;;;;;2106126;28;20032;-69
2021/07/12 01:55:36;;;;;;;10.70;9.60;;;20.20;99.90;;;;;;2106075;28;20056;-69
2021/07/12 01:57:00;;;;;;;9.50;8.60;;;20.20;99.90;;;;;;2105426;28;20077;-69
2021/07/12 01:58:16;;;;;;;11.30;10.05;;;20.10;99.90;;;;;;2101428;28;20020;-69
2021/07/12 01:59:26;;;;;;;10.88;9.30;;;20.10;99.90;;;;;;2106593;28;20034;-69
2021/07/12 02:00:28;;;;;;;11.02;10.02;;;20.10;99.90;;;;;;2106148;28;20462;-69
2021/07/12 02:01:31;;;;;;;10.93;9.82;;;20.10;99.90;;;;;;2105654;28;20036;-69
2021/07/12 02:02:32;;;;;;;10.30;9.40;;;20.10;99.90;;;;;;2106004;28;20031;-69
2021/07/12 02:03:34;;;;;;;10.77;9.88;;;20.10;99.90;;;;;;2105988;28;20020;-69
2021/07/12 02:04:37;;;;;;;9.95;9.05;;;20.10;99.90;;;;;;2106069;28;20039;-69
2021/07/12 02:05:39;;;;;;;10.80;9.60;;;20.10;99.90;;;;;;2105295;28;20043;-69
2021/07/12 02:06:41;;;;;;;10.85;9.75;;;20.10;99.90;;;;;;2105426;28;20044;-69
2021/07/12 02:07:43;;;;;;;10.52;9.52;;;20.00;99.90;;;;;;2106168;28;20020;-69
2021/07/12 02:08:46;;;;;;;10.23;9.32;;;20.10;99.90;;;;;;2105940;28;20012;-69
2021/07/12 02:09:47;;;;;;;9.77;8.80;;;20.00;99.90;;;;;;2106248;28;20024;-69
2021/07/12 02:10:52;;;;;;;11.07;10.00;;;20.00;99.90;;;;;;2105998;28;20024;-69
2021/07/12 02:11:57;;;;;;;10.77;9.77;;;20.00;99.90;;;;;;2105396;28;20498;-69
2021/07/12 02:12:59;;;;;;;10.57;9.57;;;20.00;99.90;;;;;;2106102;28;20467;-69
2021/07/12 02:14:00;;;;;;;9.40;8.60;;;20.00;99.90;;;;;;2105880;28;20035;-68
2021/07/12 02:15:02;;;;;;;9.73;8.82;;;20.00;99.90;;;;;;2105891;28;20099;-69
2021/07/12 02:16:05;;;;;;;9.43;8.52;;;19.90;99.90;;;;;;2106192;28;20459;-69
2021/07/12 02:17:07;;;;;;;11.05;9.52;;;20.00;99.90;;;;;;2105486;28;20024;-69
2021/07/12 02:18:10;;;;;;;10.13;9.23;;;20.00;99.90;;;;;;2105376;28;20507;-69
2021/07/12 02:19:12;;;;;;;10.70;9.70;;;19.90;99.90;;;;;;2105231;28;20016;-69
2021/07/12 02:20:15;;;;;;;11.30;10.23;;;20.00;99.90;;;;;;2106145;28;20355;-69
2021/07/12 02:21:16;;;;;;;10.30;9.32;;;19.90;99.90;;;;;;2106186;28;20031;-69
2021/07/12 02:22:18;;;;;;;10.40;9.45;;;19.90;99.90;;;;;;2105441;28;20020;-69
2021/07/12 02:23:20;;;;;;;13.50;9.82;;;19.90;99.90;;;;;;2105755;28;20024;-69
2021/07/12 02:24:21;;;;;;;11.20;9.82;;;19.90;99.90;;;;;;2106069;28;20028;-69
2021/07/12 02:25:22;;;;;;;10.98;9.55;;;19.90;99.90;;;;;;2105934;28;20063;-69
2021/07/12 02:26:23;;;;;;;11.35;10.10;;;19.90;99.90;;;;;;2105981;28;20471;-69
2021/07/12 02:27:25;;;;;;;10.43;9.32;;;19.90;99.90;;;;;;2105943;28;20397;-69
2021/07/12 02:28:26;;;;;;;10.57;9.60;;;19.90;99.90;;;;;;2106139;28;20493;-69
2021/07/12 02:29:30;;;;;;;11.85;9.38;;;19.90;99.90;;;;;;2105219;28;20117;-69
2021/07/12 02:30:31;;;;;;;9.98;8.85;;;19.80;99.90;;;;;;2105204;28;20020;-69
2021/07/12 02:31:34;;;;;;;10.15;8.45;;;19.80;99.90;;;;;;2104329;28;20027;-69
2021/07/12 02:32:36;;;;;;;9.98;8.75;;;19.80;99.90;;;;;;2105928;28;20379;-69
2021/07/12 02:33:37;;;;;;;9.93;9.00;;;19.80;99.90;;;;;;2105677;28;20031;-69
2021/07/12 02:34:39;;;;;;;9.40;8.60;;;19.80;99.90;;;;;;2106103;28;20054;-69
2021/07/12 02:35:40;;;;;;;9.82;9.02;;;19.80;99.90;;;;;;2105939;28;20031;-69
2021/07/12 02:36:42;;;;;;;11.05;8.88;;;19.80;99.90;;;;;;2105923;28;20035;-69
2021/07/12 02:37:45;;;;;;;9.60;8.65;;;19.80;99.90;;;;;;2105089;28;20456;-69
2021/07/12 02:38:47;;;;;;;9.10;8.30;;;19.70;99.90;;;;;;2105311;28;20020;-69
2021/07/12 02:39:49;;;;;;;11.02;9.65;;;19.70;99.90;;;;;;2105365;28;20025;-69
2021/07/12 02:40:50;;;;;;;10.63;9.43;;;19.70;99.90;;;;;;2106034;28;20016;-69
2021/07/12 02:41:52;;;;;;;9.27;8.43;;;19.70;99.90;;;;;;2105205;28;20028;-69
2021/07/12 02:42:56;;;;;;;14.07;9.65;;;19.70;99.90;;;;;;2105877;28;20515;-69
2021/07/12 02:43:57;;;;;;;11.55;8.95;;;19.70;99.90;;;;;;2105623;28;20035;-69
2021/07/12 02:44:59;;;;;;;9.23;8.32;;;19.70;99.90;;;;;;2105945;28;20032;-69
2021/07/12 02:46:01;;;;;;;9.38;8.55;;;19.60;99.90;;;;;;2105782;28;20028;-69
2021/07/12 02:47:02;;;;;;;9.57;8.65;;;19.70;99.90;;;;;;2105447;28;20023;-69
2021/07/12 02:48:02;;;;;;;9.77;8.80;;;19.60;99.90;;;;;;2105617;28;20347;-69
2021/07/12 02:49:03;;;;;;;9.45;8.60;;;19.70;99.90;;;;;;2104942;28;20116;-69
2021/07/12 02:50:05;;;;;;;13.35;8.68;;;19.60;99.90;;;;;;2105196;28;20031;-69
2021/07/12 02:51:12;;;;;;;13.02;9.98;;;19.60;99.90;;;;;;2105894;28;20426;-69
2021/07/12 02:52:23;;;;;;;9.13;8.23;;;19.60;99.90;;;;;;2105294;28;20045;-69
2021/07/12 02:53:29;;;;;;;9.88;8.93;;;19.60;99.90;;;;;;2105981;28;20032;-69
2021/07/12 02:54:37;;;;;;;9.45;8.55;;;19.60;99.90;;;;;;2105781;28;20020;-69
2021/07/12 02:55:38;;;;;;;10.45;8.75;;;19.50;99.90;;;;;;2105898;28;20061;-69
2021/07/12 02:56:38;;;;;;;10.35;9.20;;;19.50;99.90;;;;;;2105763;28;20456;-69
2021/07/12 02:57:41;;;;;;;9.98;9.07;;;19.50;99.90;;;;;;2105687;28;20020;-69
2021/07/12 02:58:42;;;;;;;11.15;8.98;;;19.50;99.90;;;;;;2105448;28;20589;-69
2021/07/12 02:59:42;;;;;;;10.50;9.40;;;19.50;99.90;;;;;;2105930;28;20085;-69
2021/07/12 03:00:43;;;;;;;9.43;8.52;;;19.50;99.90;;;;;;2105584;28;20030;-69
2021/07/12 03:01:44;;;;;;;11.75;9.63;;;19.50;99.90;;;;;;2104680;28;20035;-69
2021/07/12 03:02:45;;;;;;;10.32;9.32;;;19.50;99.90;;;;;;2105060;28;20523;-69
2021/07/12 03:03:45;;;;;;;10.63;9.52;;;19.40;99.90;;;;;;2105614;28;20054;-69
2021/07/12 03:04:46;;;;;;;9.77;8.90;;;19.40;99.90;;;;;;2105687;28;20027;-69
2021/07/12 03:05:53;;;;;;;9.60;8.63;;;19.40;99.90;;;;;;2105908;28;20032;-69
2021/07/12 03:06:57;;;;;;;9.50;8.60;;;19.40;99.90;;;;;;2105488;28;20522;-69
2021/07/12 03:08:19;;;;;;;10.13;8.95;;;19.40;99.90;;;;;;2105879;28;20506;-69
2021/07/12 03:09:37;;;;;;;10.02;9.07;;;19.40;99.90;;;;;;2105641;28;20031;-69
2021/07/12 03:10:51;;;;;;;9.13;8.32;;;19.30;99.90;;;;;;2105628;28;20019;-69
2021/07/12 03:12:01;;;;;;;9.35;8.50;;;19.30;99.90;;;;;;2105099;28;20032;-69
2021/07/12 03:13:03;;;;;;;10.40;8.85;;;19.30;99.90;;;;;;2105884;28;20043;-69
2021/07/12 03:14:20;;;;;;;10.15;9.23;;;19.30;99.90;;;;;;2105952;28;20113;-69
2021/07/12 03:15:36;;;;;;;9.88;8.88;;;19.30;99.90;;;;;;2105719;28;20016;-69
2021/07/12 03:16:38;;;;;;;9.65;8.65;;;19.30;99.90;;;;;;2105667;28;20464;-69
2021/07/12 03:17:44;;;;;;;9.65;8.80;;;19.30;99.90;;;;;;2105689;28;20189;-69
2021/07/12 03:18:56;;;;;;;10.57;9.57;;;19.30;99.90;;;;;;2105688;28;20105;-69
2021/07/12 03:19:58;;;;;;;9.55;8.63;;;19.30;99.90;;;;;;2105904;28;20024;-69
2021/07/12 03:21:01;;;;;;;9.93;9.13;;;19.20;99.90;;;;;;2105949;28;20419;-69
2021/07/12 03:22:06;;;;;;;10.23;9.18;;;19.20;99.90;;;;;;2105365;28;20034;-69
2021/07/12 03:23:11;;;;;;;9.55;8.55;;;19.30;99.90;;;;;;2105495;28;20103;-69
2021/07/12 03:24:12;;;;;;;11.10;9.30;;;19.20;99.90;;;;;;2105871;28;20031;-69
2021/07/12 03:25:17;;;;;;;10.50;9.52;;;19.20;99.90;;;;;;2105568;28;20030;-69
2021/07/12 03:26:20;;;;;;;9.88;8.85;;;19.20;99.90;;;;;;2105511;28;20514;-69
2021/07/12 03:27:22;;;;;;;9.40;8.50;;;19.20;99.90;;;;;;2105656;28;20627;-69
2021/07/12 03:28:24;;;;;;;9.15;8.32;;;19.20;99.90;;;;;;2105773;28;20020;-69
2021/07/12 03:29:28;;;;;;;11.18;9.68;;;19.20;99.90;;;;;;2105615;28;20032;-69
2021/07/12 03:30:30;;;;;;;9.60;8.73;;;19.20;99.90;;;;;;2105941;28;20032;-69
2021/07/12 03:31:31;;;;;;;9.25;8.45;;;19.20;99.90;;;;;;2104939;28;20035;-69
2021/07/12 03:32:33;;;;;;;8.68;7.93;;;19.20;99.90;;;;;;2105881;28;20024;-69
2021/07/12 03:33:36;;;;;;;10.25;9.25;;;19.20;99.90;;;;;;2105222;28;20553;-69
2021/07/12 03:34:38;;;;;;;10.43;9.27;;;19.20;99.90;;;;;;2105704;28;20020;-69
2021/07/12 03:35:44;;;;;;;9.65;7.95;;;19.20;99.90;;;;;;2105605;28;20103;-69
2021/07/12 03:36:46;;;;;;;9.07;8.27;;;19.20;99.90;;;;;;2105777;28;20046;-69
2021/07/12 03:37:47;;;;;;;9.13;8.07;;;19.20;99.90;;;;;;2105519;28;20027;-69
2021/07/12 03:38:48;;;;;;;9.43;8.63;;;19.20;99.90;;;;;;2105734;28;20031;-69
2021/07/12 03:39:50;;;;;;;9.80;8.82;;;19.20;99.90;;;;;;2105455;28;20073;-69
2021/07/12 03:40:51;;;;;;;10.20;8.27;;;19.20;99.90;;;;;;2105844;28;20146;-69
2021/07/12 03:41:53;;;;;;;9.55;8.70;;;19.20;99.90;;;;;;2104809;28;20024;-69
2021/07/12 03:42:54;;;;;;;10.60;9.02;;;19.20;99.90;;;;;;2105834;28;20032;-69
2021/07/12 03:43:54;;;;;;;9.05;8.13;;;19.20;99.90;;;;;;2105495;28;20067;-69
2021/07/12 03:44:55;;;;;;;9.57;8.68;;;19.20;99.90;;;;;;2105462;28;20055;-69
2021/07/12 03:45:58;;;;;;;9.10;7.97;;;19.20;99.90;;;;;;2105593;28;20068;-69
2021/07/12 03:46:59;;;;;;;10.73;8.73;;;19.20;99.90;;;;;;2105734;28;20028;-69
2021/07/12 03:47:59;;;;;;;11.70;7.97;;;19.20;99.90;;;;;;2105557;28;20048;-69
2021/07/12 03:49:07;;;;;;;9.30;7.93;;;19.20;99.90;;;;;;2105333;28;20070;-69
2021/07/12 03:50:11;;;;;;;10.35;7.68;;;19.20;99.90;;;;;;2105578;28;20131;-69
2021/07/12 03:51:19;;;;;;;9.07;7.57;;;19.20;99.90;;;;;;2105682;28;20016;-69
2021/07/12 03:52:22;;;;;;;8.82;7.90;;;19.20;99.90;;;;;;2104856;28;20040;-69
2021/07/12 03:53:22;;;;;;;9.93;8.43;;;19.20;99.90;;;;;;2105705;28;20045;-69
2021/07/12 03:54:23;;;;;;;9.95;8.32;;;19.20;99.90;;;;;;2105410;28;20050;-69
2021/07/12 03:55:24;;;;;;;10.15;8.75;;;19.20;99.90;;;;;;2105605;28;20109;-69
2021/07/12 03:56:25;;;;;;;9.55;8.65;;;19.20;99.90;;;;;;2105235;28;20016;-69
2021/07/12 03:57:26;;;;;;;10.88;9.13;;;19.20;99.90;;;;;;2105476;28;20070;-69
2021/07/12 03:58:26;;;;;;;9.15;8.05;;;19.20;99.90;;;;;;2105597;28;20061;-69
2021/07/12 03:59:27;;;;;;;9.55;8.32;;;19.20;99.90;;;;;;2106361;28;20016;-69
2021/07/12 04:00:29;;;;;;;8.35;7.55;;;19.20;99.90;;;;;;2107013;28;20448;-69
2021/07/12 04:01:30;;;;;;;9.35;7.65;;;19.20;99.90;;;;;;2106741;28;20413;-69
2021/07/12 04:02:30;;;;;;;8.40;7.68;;;19.20;99.90;;;;;;2107102;28;20028;-69
2021/07/12 04:03:31;;;;;;;7.60;7.00;;;19.20;99.90;;;;;;2106933;28;20020;-69
2021/07/12 04:04:33;;;;;;;9.68;8.30;;;19.20;99.90;;;;;;2106721;28;20032;-69
2021/07/12 04:05:33;;;;;;;8.93;8.13;;;19.20;99.90;;;;;;2107019;28;20020;-69
2021/07/12 04:06:34;;;;;;;10.82;8.02;;;19.20;99.90;;;;;;2106947;28;20020;-69
2021/07/12 04:07:35;;;;;;;9.02;7.90;;;19.20;99.90;;;;;;2106594;28;20031;-69
2021/07/12 04:08:36;;;;;;;9.00;8.10;;;19.10;99.90;;;;;;2107079;28;20065;-69
2021/07/12 04:09:37;;;;;;;9.43;8.30;;;19.20;99.90;;;;;;2107040;28;20073;-69
2021/07/12 04:10:38;;;;;;;9.38;8.07;;;19.20;99.90;;;;;;2107183;28;20540;-70
2021/07/12 04:11:39;;;;;;;8.55;7.72;;;19.20;99.90;;;;;;2106334;28;20048;-69
2021/07/12 04:12:41;;;;;;;9.13;8.35;;;19.20;99.90;;;;;;2107155;28;20020;-69
2021/07/12 04:13:42;;;;;;;11.15;8.13;;;19.20;99.90;;;;;;2105734;28;20020;-69
2021/07/12 04:14:42;;;;;;;9.75;8.85;;;19.20;99.90;;;;;;2106418;28;20813;-69
2021/07/12 04:15:43;;;;;;;10.45;9.45;;;19.20;99.90;;;;;;2106613;28;20032;-69
2021/07/12 04:16:44;;;;;;;10.25;8.25;;;19.30;99.90;;;;;;2107019;28;20024;-69
2021/07/12 04:17:45;;;;;;;10.65;9.38;;;19.30;99.90;;;;;;2106743;28;20027;-69
2021/07/12 04:18:46;;;;;;;10.90;9.80;;;19.30;99.90;;;;;;2107018;28;20021;-69
2021/07/12 04:19:47;;;;;;;11.27;9.27;;;19.30;99.90;;;;;;2106664;28;20106;-69
2021/07/12 04:20:48;;;;;;;10.55;9.52;;;19.30;99.90;;;;;;2107209;28;20027;-69
2021/07/12 04:21:49;;;;;;;9.80;8.90;;;19.30;99.90;;;;;;2106344;28;20115;-69
2021/07/12 04:22:50;;;;;;;10.07;9.27;;;19.30;99.90;;;;;;2106840;28;20021;-69
2021/07/12 04:23:50;;;;;;;10.50;9.50;;;19.30;99.90;;;;;;2106730;28;20029;-69
2021/07/12 04:24:51;;;;;;;10.15;9.15;;;19.30;99.90;;;;;;2106985;28;20035;-69
2021/07/12 04:25:52;;;;;;;12.40;9.45;;;19.40;99.90;;;;;;2106849;28;20024;-69
2021/07/12 04:26:53;;;;;;;10.82;9.82;;;19.30;99.90;;;;;;2106429;28;20674;-69
2021/07/12 04:27:55;;;;;;;10.98;10.02;;;19.40;99.90;;;;;;2106787;28;20024;-69
2021/07/12 04:28:56;;;;;;;11.05;9.95;;;19.40;99.90;;;;;;2107012;28;20056;-69
2021/07/12 04:29:56;;;;;;;10.88;9.77;;;19.40;99.90;;;;;;2106635;28;20032;-69
2021/07/12 04:30:57;;;;;;;11.43;8.98;;;19.40;99.90;;;;;;2106945;28;20012;-69
2021/07/12 04:32:00;;;;;;;10.93;9.93;;;19.40;99.90;;;;;;2106339;28;20159;-69
2021/07/12 04:33:01;;;;;;;12.98;11.68;;;19.40;99.90;;;;;;2107144;28;20028;-69
2021/07/12 04:34:01;;;;;;;10.88;9.77;;;19.50;99.90;;;;;;2106792;28;20024;-69
2021/07/12 04:35:03;;;;;;;10.85;9.95;;;19.50;99.90;;;;;;2106671;28;20467;-69
2021/07/12 04:36:03;;;;;;;11.93;10.88;;;19.50;99.90;;;;;;2106785;28;20035;-69
2021/07/12 04:37:05;;;;;;;12.20;11.10;;;19.50;99.90;;;;;;2107026;28;20027;-69
2021/07/12 04:38:05;;;;;;;12.75;10.60;;;19.50;99.90;;;;;;2106420;28;20077;-69
2021/07/12 04:39:06;;;;;;;11.55;10.55;;;19.60;99.90;;;;;;2106623;28;20032;-69
2021/07/12 04:40:07;;;;;;;12.85;11.52;;;19.60;99.90;;;;;;2106687;28;20042;-69
2021/07/12 04:41:08;;;;;;;12.52;11.43;;;19.60;99.90;;;;;;2106831;28;20044;-69
2021/07/12 04:42:08;;;;;;;13.95;12.50;;;19.60;99.90;;;;;;2106152;28;20475;-69
2021/07/12 04:43:09;;;;;;;14.45;13.00;;;19.60;99.90;;;;;;2106905;28;20020;-69
2021/07/12 04:44:10;;;;;;;19.73;12.48;;;19.60;99.90;;;;;;2106639;28;20531;-69
2021/07/12 04:45:11;;;;;;;16.23;12.52;;;19.60;99.90;;;;;;2106613;28;20024;-69
2021/07/12 04:46:11;;;;;;;13.43;12.13;;;19.60;99.90;;;;;;2111163;28;20028;-69
2021/07/12 04:47:12;;;;;;;13.73;11.85;;;19.60;99.90;;;;;;2115062;28;20099;-69
2021/07/12 04:48:12;;;;;;;13.43;11.75;;;19.60;99.90;;;;;;2115202;27;20024;-69
2021/07/12 04:49:13;;;;;;;13.18;10.98;;;19.60;99.90;;;;;;2114973;28;20031;-69
2021/07/12 04:50:14;;;;;;;13.48;10.95;;;19.60;99.90;;;;;;2115109;28;20046;-69
2021/07/12 04:51:15;;;;;;;12.55;11.27;;;19.60;99.90;;;;;;2115013;28;20027;-69
2021/07/12 04:52:16;;;;;;;12.27;11.23;;;19.60;99.90;;;;;;2114614;28;20061;-69
2021/07/12 04:53:16;;;;;;;12.18;11.07;;;19.60;99.90;;;;;;2115229;28;20050;-69
2021/07/12 04:54:17;;;;;;;11.18;10.18;;;19.60;99.90;;;;;;2115025;28;20076;-69
2021/07/12 04:55:17;;;;;;;12.05;10.38;;;19.60;99.90;;;;;;2114808;28;20023;-69
2021/07/12 04:56:18;;;;;;;12.65;11.55;;;19.60;99.90;;;;;;2107752;28;20024;-69
2021/07/12 04:57:18;;;;;;;12.45;11.18;;;19.70;99.90;;;;;;2106514;28;20024;-69
2021/07/12 04:58:19;;;;;;;14.95;11.90;;;19.60;99.90;;;;;;2106688;28;20099;-69
2021/07/12 04:59:25;;;;;;;10.68;9.63;;;19.70;99.90;;;;;;2106379;28;20020;-69
2021/07/12 05:00:26;;;;;;;11.45;10.32;;;19.70;99.90;;;;;;2106505;28;20024;-69
2021/07/12 05:01:27;;;;;;;11.73;10.63;;;19.70;99.90;;;;;;2106337;28;20035;-69
2021/07/12 05:02:28;;;;;;;12.13;10.90;;;19.80;99.90;;;;;;2106412;28;20425;-69
2021/07/12 05:03:31;;;;;;;11.45;10.45;;;19.80;99.90;;;;;;2106247;28;20020;-69
2021/07/12 05:04:32;;;;;;;11.90;10.70;;;19.90;99.90;;;;;;2106626;28;20103;-69
2021/07/12 05:05:33;;;;;;;11.60;10.60;;;19.80;99.90;;;;;;2106411;28;20024;-69
2021/07/12 05:06:34;;;;;;;12.25;10.70;;;19.90;99.90;;;;;;2106015;28;20406;-69
2021/07/12 05:07:35;;;;;;;12.23;11.18;;;19.90;99.90;;;;;;2105820;28;20025;-69
2021/07/12 05:08:36;;;;;;;10.90;9.82;;;20.00;99.90;;;;;;2106673;28;20142;-69
2021/07/12 05:09:37;;;;;;;12.30;11.20;;;20.00;99.90;;;;;;2106500;28;20040;-69
2021/07/12 05:10:40;;;;;;;11.05;9.93;;;20.00;99.90;;;;;;2112493;28;20019;-69
2021/07/12 05:11:41;;;;;;;11.98;10.80;;;20.10;99.90;;;;;;2114262;28;20340;-69
2021/07/12 05:12:42;;;;;;;12.85;11.52;;;20.10;99.90;;;;;;2115040;28;20053;-69
2021/07/12 05:13:43;;;;;;;12.65;11.55;;;20.10;99.90;;;;;;2114384;28;20051;-69
2021/07/12 05:14:44;;;;;;;11.90;10.80;;;20.20;99.90;;;;;;2114912;28;20016;-69
2021/07/12 05:15:44;;;;;;;10.80;9.65;;;20.20;99.90;;;;;;2114803;28;20030;-69
2021/07/12 05:16:45;;;;;;;12.75;11.45;;;20.30;99.90;;;;;;2107428;28;20624;-69
2021/07/12 05:17:45;;;;;;;13.80;10.85;;;20.30;99.90;;;;;;2105792;28;20016;-69
2021/07/12 05:18:47;;;;;;;13.43;12.15;;;20.40;99.90;;;;;;2105832;28;20026;-69
2021/07/12 05:19:48;;;;;;;12.25;11.18;;;20.40;99.90;;;;;;2106294;28;20024;-69
2021/07/12 05:20:51;;;;;;;11.35;10.35;;;20.40;99.90;;;;;;2106415;28;20027;-69
2021/07/12 05:21:51;;;;;;;10.80;9.85;;;20.50;99.90;;;;;;2105727;28;20027;-69
2021/07/12 05:22:52;;;;;;;11.18;10.07;;;20.50;99.90;;;;;;2106432;28;20035;-69
2021/07/12 05:23:52;;;;;;;10.75;9.82;;;20.50;99.90;;;;;;2106371;28;20387;-69
2021/07/12 05:24:54;;;;;;;11.10;10.20;;;20.60;99.90;;;;;;2106151;28;20145;-69
2021/07/12 05:25:54;;;;;;;12.02;10.82;;;20.70;99.90;;;;;;2106322;28;20028;-69
2021/07/12 05:26:55;;;;;;;12.38;11.23;;;20.70;99.90;;;;;;2106287;28;20153;-69
2021/07/12 05:27:55;;;;;;;11.38;10.48;;;20.80;99.90;;;;;;2106378;28;20016;-69
2021/07/12 05:28:56;;;;;;;11.95;10.70;;;20.80;99.90;;;;;;2106286;28;20030;-69